Time;durP1;ratioP1;P1;durP2;ratioP2;P2;SDS_P1;SDS_P2;PMS_P1;PMS_P2;Temp;Humidity;BMP_temperature;BMP_pressure;BME280_temperature;BME280_humidity;BME280_pressure;Samples;Min_cycle;Max_cycle;Signal;HPM_P1;HPM_P2
2022/04/26 03:36:11;;;;;;;9.30;3.20;;;;;;;0.94;98.28;99780.14;104693;1272;73713;-73
2022/04/26 03:38:58;;;;;;;8.40;3.40;;;;;;;0.96;97.73;99783.38;104928;1273;66791;-72
2022/04/26 03:41:46;;;;;;;8.70;3.30;;;;;;;0.98;97.47;99783.11;104931;1273;72463;-72
2022/04/26 03:44:34;;;;;;;8.50;3.40;;;;;;;0.99;97.09;99788.11;105016;1273;59765;-74
2022/04/26 03:47:22;;;;;;;9.00;3.20;;;;;;;1.00;96.72;99789.45;104689;1273;59891;-72
2022/04/26 03:50:10;;;;;;;9.10;3.80;;;;;;;1.02;96.58;99789.77;105047;1273;73833;-72
2022/04/26 03:52:58;;;;;;;10.10;3.40;;;;;;;1.06;96.37;99792.94;104793;1274;67090;-73
2022/04/26 03:55:46;;;;;;;9.20;3.70;;;;;;;1.08;96.04;99795.45;104881;1272;73414;-72
2022/04/26 03:58:35;;;;;;;8.10;3.40;;;;;;;1.12;96.12;99797.02;104597;1274;59678;-71
2022/04/26 04:01:23;;;;;;;10.60;3.80;;;;;;;1.17;95.78;99799.41;104862;1273;59690;-69
2022/04/26 04:04:12;;;;;;;8.20;3.20;;;;;;;1.23;95.60;99801.08;104991;1273;71984;-73
2022/04/26 04:07:00;;;;;;;8.60;3.40;;;;;;;1.29;95.41;99800.67;104886;1273;68592;-70
2022/04/26 04:09:47;;;;;;;8.80;3.00;;;;;;;1.34;94.96;99803.58;104714;1273;73507;-70
2022/04/26 04:12:36;;;;;;;8.70;3.30;;;;;;;1.40;94.84;99802.32;105035;1273;59724;-73
2022/04/26 04:15:23;;;;;;;9.40;3.80;;;;;;;1.45;94.49;99804.02;104882;1273;61007;-71
2022/04/26 04:21:17;;;;;;;9.30;3.60;;;;;;;1.55;93.87;99808.30;104671;1274;68073;-72
2022/04/26 04:24:06;;;;;;;10.70;4.00;;;;;;;1.60;93.50;99809.79;104858;1274;73766;-72
2022/04/26 04:26:55;;;;;;;9.70;4.00;;;;;;;1.67;93.50;99812.63;105319;1273;59707;-71
2022/04/26 04:29:44;;;;;;;8.70;4.00;;;;;;;1.75;93.11;99815.23;104654;1273;59891;-71
2022/04/26 04:32:32;;;;;;;10.80;3.70;;;;;;;1.84;92.91;99819.56;104684;1273;72989;-71
2022/04/26 04:35:20;;;;;;;7.70;2.90;;;;;;;1.94;92.55;99820.86;104584;1274;68583;-74
2022/04/26 04:38:08;;;;;;;8.40;3.50;;;;;;;2.04;92.27;99824.77;104943;1273;73284;-71
2022/04/26 04:40:58;;;;;;;9.10;3.30;;;;;;;2.14;92.16;99828.16;104602;1273;59744;-71
2022/04/26 04:43:45;;;;;;;11.00;3.80;;;;;;;2.25;91.68;99827.52;104605;1273;59656;-70
2022/04/26 04:46:33;;;;;;;8.50;3.40;;;;;;;2.34;91.41;99829.33;104463;1276;74320;-71
2022/04/26 04:49:23;;;;;;;8.50;3.30;;;;;;;2.46;91.08;99831.59;104712;1272;68418;-71
2022/04/26 04:52:11;;;;;;;10.70;4.10;;;;;;;2.55;90.31;99834.80;104608;1273;73183;-69
2022/04/26 04:54:59;;;;;;;8.80;3.40;;;;;;;2.64;89.80;99829.30;104759;1273;59567;-70
2022/04/26 04:57:47;;;;;;;10.10;4.20;;;;;;;2.76;89.55;99832.59;104666;1273;60027;-73
2022/04/26 05:00:35;;;;;;;9.90;3.80;;;;;;;2.88;88.77;99833.41;104865;1273;72452;-74
2022/04/26 05:03:23;;;;;;;9.90;4.00;;;;;;;3.00;88.42;99832.61;104774;1273;66984;-71
2022/04/26 05:06:16;;;;;;;10.60;4.30;;;;;;;3.15;87.81;99830.66;104788;1273;73805;-74
2022/04/26 05:09:05;;;;;;;9.00;4.00;;;;;;;3.32;86.99;99829.96;104528;1273;59647;-75
2022/04/26 05:11:55;;;;;;;10.20;3.80;;;;;;;3.49;86.73;99830.31;104701;1272;60614;-70
2022/04/26 05:14:43;;;;;;;10.50;4.00;;;;;;;3.66;85.57;99831.56;104762;1273;74754;-71
2022/04/26 05:17:31;;;;;;;9.20;4.20;;;;;;;3.82;85.40;99830.16;104927;1273;66838;-75
2022/04/26 05:20:21;;;;;;;10.40;4.80;;;;;;;3.99;84.12;99834.52;104681;1273;74197;-72
2022/04/26 05:26:18;;;;;;;12.40;5.20;;;;;;;4.51;83.20;99834.52;104640;1273;61845;-70
2022/04/26 05:29:06;;;;;;;10.30;4.60;;;;;;;5.07;81.07;99833.39;105039;1273;73908;-71
2022/04/26 05:31:55;;;;;;;9.40;4.30;;;;;;;6.26;77.59;99834.33;105052;1273;69544;-70
2022/04/26 05:34:42;;;;;;;9.60;4.40;;;;;;;8.02;74.19;99829.11;105100;1273;70567;-70
2022/04/26 05:37:31;;;;;;;9.10;4.50;;;;;;;10.14;67.36;99827.84;104784;1276;59720;-70
2022/04/26 05:40:19;;;;;;;10.10;4.40;;;;;;;12.24;62.01;99815.08;104710;1274;62298;-70
2022/04/26 05:43:08;;;;;;;8.60;3.40;;;;;;;14.30;55.17;99814.62;104694;1274;73596;-68
2022/04/26 05:45:56;;;;;;;7.90;3.20;;;;;;;16.04;49.75;99808.30;104896;1274;65770;-72
2022/04/26 05:48:43;;;;;;;7.40;3.00;;;;;;;17.54;44.51;99804.29;104695;1274;72430;-70
2022/04/26 05:51:32;;;;;;;7.00;2.90;;;;;;;18.96;40.62;99800.52;104958;1274;59832;-70
2022/04/26 05:54:20;;;;;;;8.80;2.80;;;;;;;20.19;37.04;99796.11;104663;1276;59888;-70
2022/04/26 05:57:07;;;;;;;7.20;2.50;;;;;;;21.33;35.17;99786.05;104972;1273;74724;-72
2022/04/26 05:59:55;;;;;;;6.20;2.40;;;;;;;22.30;32.63;99789.56;105167;1273;68159;-73
2022/04/26 06:02:43;;;;;;;7.80;3.10;;;;;;;23.29;30.19;99781.96;104933;1273;72152;-69
2022/04/26 06:05:38;;;;;;;8.20;1.90;;;;;;;24.05;27.27;99777.15;104601;1273;59759;-70
2022/04/26 06:08:28;;;;;;;5.70;1.70;;;;;;;24.52;26.78;99778.48;104943;1273;59642;-71
2022/04/26 06:11:16;;;;;;;7.70;2.10;;;;;;;24.95;25.37;99776.19;104861;1273;74864;-75
2022/04/26 06:14:04;;;;;;;7.30;2.80;;;;;;;25.38;24.74;99775.86;104915;1272;67045;-69
2022/04/26 06:16:52;;;;;;;6.20;1.70;;;;;;;25.85;22.86;99768.02;105118;1273;72892;-75
2022/04/26 06:19:40;;;;;;;5.70;1.70;;;;;;;26.15;22.48;99766.49;104888;1273;59864;-72
2022/04/26 06:22:29;;;;;;;6.30;2.00;;;;;;;26.31;21.59;99771.08;104871;1273;60993;-69
2022/04/26 06:25:17;;;;;;;5.60;1.60;;;;;;;26.56;20.42;99768.05;104881;1273;73309;-69
2022/04/26 06:28:09;;;;;;;5.30;1.60;;;;;;;27.03;20.52;99765.67;104859;1273;69541;-70
2022/04/26 06:31:00;;;;;;;5.10;1.10;;;;;;;27.51;18.94;99765.51;105250;1273;71675;-70
2022/04/26 06:33:48;;;;;;;5.30;1.30;;;;;;;27.85;18.33;99769.49;105162;1273;59679;-73
2022/04/26 06:36:36;;;;;;;6.10;1.30;;;;;;;28.08;17.65;99762.37;105370;1273;60548;-72
2022/04/26 06:39:25;;;;;;;4.40;1.10;;;;;;;28.18;17.33;99765.50;104985;1273;72509;-71
2022/04/26 06:42:13;;;;;;;5.70;1.20;;;;;;;28.36;16.41;99763.39;104993;1273;67059;-72
2022/04/26 06:45:04;;;;;;;5.30;1.20;;;;;;;28.44;16.43;99762.20;104927;1273;72611;-71
2022/04/26 06:47:54;;;;;;;5.70;1.30;;;;;;;28.64;16.23;99768.11;104911;1273;60351;-69
2022/04/26 06:50:44;;;;;;;6.20;1.30;;;;;;;28.87;16.03;99772.80;104971;1273;60477;-70
2022/04/26 06:53:34;;;;;;;6.30;1.30;;;;;;;29.00;15.90;99769.90;104955;1273;73395;-69
2022/04/26 06:56:26;;;;;;;6.00;1.40;;;;;;;29.19;16.15;99773.34;105247;1273;68038;-72
2022/04/26 06:59:14;;;;;;;5.10;1.40;;;;;;;29.16;15.51;99774.98;104957;1273;74221;-70
2022/04/26 07:02:03;;;;;;;6.20;1.50;;;;;;;29.09;15.67;99777.77;105011;1273;59768;-72
2022/04/26 07:04:51;;;;;;;5.60;1.40;;;;;;;29.22;15.50;99778.39;104883;1273;59752;-70
2022/04/26 07:07:40;;;;;;;6.00;1.50;;;;;;;29.25;15.43;99777.35;104683;1274;73921;-71
2022/04/26 07:10:30;;;;;;;4.80;1.10;;;;;;;29.24;14.88;99784.95;105555;1273;68049;-67
2022/04/26 07:13:20;;;;;;;5.00;1.30;;;;;;;29.06;14.61;99780.41;104710;1273;73891;-70
2022/04/26 07:16:08;;;;;;;5.00;1.10;;;;;;;29.11;14.59;99782.16;104925;1276;60237;-68
2022/04/26 07:18:56;;;;;;;6.00;1.90;;;;;;;29.10;14.39;99785.73;105298;1273;59651;-68
2022/04/26 07:21:47;;;;;;;5.70;1.50;;;;;;;29.42;14.64;99787.20;104698;1273;73333;-69
2022/04/26 07:24:52;;;;;;;6.00;1.40;;;;;;;29.62;14.25;99785.46;104657;1273;68341;-70
2022/04/26 07:27:41;;;;;;;4.80;1.20;;;;;;;29.76;13.85;99789.94;104697;1273;73371;-66
2022/04/26 07:30:34;;;;;;;5.60;1.30;;;;;;;29.80;13.25;99789.90;104865;1273;59560;-68
2022/04/26 07:36:28;;;;;;;5.60;1.40;;;;;;;29.70;12.92;99795.18;105201;1273;73227;-70
2022/04/26 07:39:17;;;;;;;4.70;1.20;;;;;;;29.68;12.99;99800.52;104576;1273;69721;-67
2022/04/26 07:42:06;;;;;;;6.70;1.80;;;;;;;29.54;13.10;99804.04;104945;1273;72205;-68
2022/04/26 07:44:54;;;;;;;12.30;8.10;;;;;;;29.33;13.68;99810.02;105125;1273;59666;-70
2022/04/26 07:47:42;;;;;;;6.30;2.20;;;;;;;29.21;13.71;99810.14;104833;1273;59760;-69
2022/04/26 07:50:32;;;;;;;6.10;1.80;;;;;;;28.94;13.86;99817.95;104914;1273;73260;-69
2022/04/26 07:53:20;;;;;;;5.20;1.40;;;;;;;28.95;13.87;99820.97;104716;1273;68597;-70
2022/04/26 07:56:09;;;;;;;6.20;1.80;;;;;;;29.14;13.86;99821.64;104993;1273;70946;-72
2022/04/26 07:59:05;;;;;;;6.50;2.20;;;;;;;29.35;13.71;99824.85;105211;1273;59724;-67
2022/04/26 08:01:53;;;;;;;6.30;1.70;;;;;;;29.21;13.18;99822.96;104953;1274;59623;-69
2022/04/26 08:04:41;;;;;;;6.70;1.70;;;;;;;29.34;13.27;99825.98;104972;1274;72379;-70
2022/04/26 08:07:29;;;;;;;6.00;1.80;;;;;;;29.30;12.76;99825.27;104488;1273;66969;-67
2022/04/26 08:10:17;;;;;;;6.60;2.10;;;;;;;29.20;13.47;99825.29;105104;1273;72149;-71
2022/04/26 08:13:05;;;;;;;7.60;1.70;;;;;;;29.27;13.75;99827.76;104830;1273;60202;-70
2022/04/26 08:15:53;;;;;;;6.60;1.70;;;;;;;29.31;13.72;99828.95;104785;1273;62066;-69
2022/04/26 08:18:41;;;;;;;5.70;1.80;;;;;;;29.19;13.87;99830.91;105320;1273;73586;-69
2022/04/26 08:21:29;;;;;;;5.70;1.90;;;;;;;29.10;13.74;99830.38;104875;1273;67072;-71
2022/04/26 08:27:32;;;;;;;8.70;1.80;;;;;;;28.71;13.52;99834.77;105277;1273;59551;-69
2022/04/26 08:30:25;;;;;;;6.30;1.50;;;;;;;28.58;14.09;99837.17;104775;1274;59770;-69
2022/04/26 08:33:13;;;;;;;5.00;1.50;;;;;;;28.78;13.56;99835.72;105124;1273;73146;-68
2022/04/26 08:36:03;;;;;;;5.80;1.30;;;;;;;28.89;13.26;99838.67;104738;1273;69207;-69
2022/04/26 08:38:51;;;;;;;5.60;1.50;;;;;;;28.83;13.07;99835.89;104799;1273;73268;-67
2022/04/26 08:41:39;;;;;;;6.30;1.60;;;;;;;28.55;13.07;99833.70;104670;1273;60131;-69
2022/04/26 08:44:29;;;;;;;8.80;1.70;;;;;;;28.63;13.85;99836.05;105003;1273;60498;-69
2022/04/26 08:53:34;;;;;;;7.60;1.70;;;;;;;29.19;13.36;99839.31;104979;1273;72207;-68
2022/04/26 08:56:22;;;;;;;7.20;1.70;;;;;;;29.31;13.13;99843.26;105290;1273;59684;-69
2022/04/26 08:59:10;;;;;;;5.80;1.90;;;;;;;29.41;12.96;99846.87;105367;1273;59894;-70
2022/04/26 09:02:19;;;;;;;8.50;2.70;;;;;;;29.31;12.53;99843.64;106678;1273;72085;-68
2022/04/26 09:05:14;;;;;;;5.40;1.70;;;;;;;29.58;12.86;99843.52;106189;1273;67831;-67
2022/04/26 09:08:22;;;;;;;7.00;1.60;;;;;;;29.46;12.94;99844.20;106097;1273;481417;-70
2022/04/26 09:11:27;;;;;;;6.40;1.70;;;;;;;29.37;13.54;99845.39;105128;1273;59670;-70
2022/04/26 09:14:39;;;;;;;5.50;1.70;;;;;;;29.15;13.21;99847.52;105164;1273;60523;-70
2022/04/26 09:17:27;;;;;;;6.10;1.50;;;;;;;28.95;13.62;99851.16;105216;1273;73682;-68
2022/04/26 09:20:32;;;;;;;7.10;2.50;;;;;;;28.78;13.27;99855.72;105012;1273;67181;-72
2022/04/26 09:23:29;;;;;;;5.70;1.60;;;;;;;28.79;13.99;99855.73;104790;1273;73662;-69
2022/04/26 09:26:17;;;;;;;6.00;1.50;;;;;;;28.70;13.76;99863.44;104705;1273;59713;-69
2022/04/26 09:29:07;;;;;;;5.60;1.20;;;;;;;28.22;13.48;99866.28;104795;1273;62089;-70
2022/04/26 09:32:02;;;;;;;9.10;1.60;;;;;;;28.05;14.02;99868.16;105364;1274;74284;-69
2022/04/26 09:34:51;;;;;;;7.10;1.90;;;;;;;28.13;14.21;99868.83;105059;1273;67319;-67
2022/04/26 09:37:43;;;;;;;6.20;1.60;;;;;;;28.31;14.26;99863.41;105173;1273;74193;-70
2022/04/26 09:40:35;;;;;;;6.00;1.70;;;;;;;28.49;14.13;99863.55;104746;1273;59814;-69
2022/04/26 09:43:23;;;;;;;5.90;1.60;;;;;;;28.64;14.00;99861.75;104835;1274;59882;-69
2022/04/26 09:46:11;;;;;;;5.30;1.40;;;;;;;28.63;13.73;99861.22;104955;1273;73668;-69
2022/04/26 09:49:05;;;;;;;5.50;1.50;;;;;;;28.25;13.55;99861.35;104720;1273;70234;-73
2022/04/26 09:51:56;;;;;;;5.00;1.40;;;;;;;28.21;14.28;99868.73;104697;1274;71661;-71
2022/04/26 09:54:46;;;;;;;6.50;1.50;;;;;;;28.17;14.16;99867.61;105030;1274;59786;-70
2022/04/26 09:57:38;;;;;;;5.50;1.30;;;;;;;28.11;14.04;99868.62;105221;1273;60224;-69
2022/04/26 10:00:27;;;;;;;5.10;1.30;;;;;;;28.21;14.22;99869.71;105127;1273;73876;-71
2022/04/26 10:03:20;;;;;;;6.30;1.70;;;;;;;28.25;14.08;99870.61;104946;1273;67028;-69
2022/04/26 10:06:10;;;;;;;5.50;1.50;;;;;;;28.51;14.06;99871.75;104900;1273;74563;-68
2022/04/26 10:08:59;;;;;;;5.50;1.50;;;;;;;28.50;13.76;99872.63;104892;1273;59632;-72
2022/04/26 10:11:58;;;;;;;5.40;1.30;;;;;;;28.42;14.07;99868.23;105222;1273;59581;-73
2022/04/26 10:14:45;;;;;;;5.30;1.40;;;;;;;28.17;13.85;99872.36;104804;1275;73156;-70
2022/04/26 10:17:33;;;;;;;5.50;1.40;;;;;;;28.11;13.88;99874.04;105136;1274;67972;-71
2022/04/26 10:20:42;;;;;;;5.20;1.30;;;;;;;27.96;14.01;99876.60;104654;1273;73284;-73
2022/04/26 10:24:03;;;;;;;5.40;1.50;;;;;;;27.66;14.48;99876.83;104728;1276;59677;-72
2022/04/26 10:26:52;;;;;;;4.70;1.20;;;;;;;27.31;14.21;99877.52;105156;1273;60606;-74
2022/04/26 10:29:44;;;;;;;6.00;1.50;;;;;;;27.22;14.63;99877.73;104753;1273;73834;-65
2022/04/26 10:32:38;;;;;;;7.10;1.60;;;;;;;26.99;14.27;99876.60;104682;1273;67212;-68
2022/04/26 10:35:26;;;;;;;11.60;1.50;;;;;;;26.91;13.80;99874.52;105029;1273;72619;-69
2022/04/26 10:38:16;;;;;;;8.40;2.50;;;;;;;26.73;14.01;99874.78;104845;1274;59729;-70
2022/04/26 10:41:03;;;;;;;6.40;1.50;;;;;;;26.92;14.12;99875.30;104655;1273;59628;-71
2022/04/26 10:44:13;;;;;;;7.50;1.40;;;;;;;27.14;13.82;99868.67;105046;1275;73029;-70
2022/04/26 10:47:02;;;;;;;5.00;1.30;;;;;;;27.03;13.63;99873.52;104901;1273;66545;-70
2022/04/26 10:49:52;;;;;;;6.40;1.50;;;;;;;27.04;14.06;99878.93;104930;1273;73781;-70
2022/04/26 10:52:44;;;;;;;5.40;1.60;;;;;;;27.09;13.85;99874.48;104837;1273;59744;-70
2022/04/26 10:55:32;;;;;;;6.00;1.50;;;;;;;27.10;13.39;99879.41;104910;1273;60209;-71
2022/04/26 10:58:19;;;;;;;5.40;1.60;;;;;;;27.21;13.43;99875.30;105100;1273;71955;-69
2022/04/26 11:01:07;;;;;;;5.50;1.40;;;;;;;27.31;13.21;99875.29;104781;1273;68631;-69
2022/04/26 11:04:01;;;;;;;5.20;1.60;;;;;;;27.43;13.37;99873.48;104569;1273;73861;-68
2022/04/26 11:06:49;;;;;;;5.80;1.60;;;;;;;27.40;13.16;99867.94;104818;1274;59702;-69
2022/04/26 11:09:50;;;;;;;6.40;1.30;;;;;;;27.55;13.10;99872.90;104854;1273;61135;-67
2022/04/26 11:12:39;;;;;;;4.90;1.30;;;;;;;27.82;12.95;99870.67;104873;1274;72550;-72
2022/04/26 11:15:29;;;;;;;5.70;1.20;;;;;;;27.88;12.99;99873.55;105190;1273;67815;-68
2022/04/26 11:18:20;;;;;;;5.50;1.20;;;;;;;27.61;12.73;99875.16;105098;1273;71462;-69
2022/04/26 11:21:09;;;;;;;4.90;1.00;;;;;;;27.11;13.11;99873.71;105190;1273;59796;-72
2022/04/26 11:30:46;;;;;;;6.60;1.40;;;;;;;25.97;13.37;99877.92;104904;1273;68868;-69
2022/04/26 11:33:34;;;;;;;8.10;1.50;;;;;;;25.46;13.81;99882.30;104937;1273;74250;-70
2022/04/26 11:36:22;;;;;;;5.30;1.40;;;;;;;25.06;14.02;99883.06;104982;1273;60942;-70
2022/04/26 11:39:10;;;;;;;5.30;1.30;;;;;;;24.63;14.75;99890.40;104859;1273;59585;-69
2022/04/26 11:41:58;;;;;;;5.00;1.30;;;;;;;24.09;15.33;99890.42;104920;1273;74726;-69
2022/04/26 11:45:16;;;;;;;5.10;1.30;;;;;;;23.54;15.38;99895.50;104915;1273;67016;-70
2022/04/26 11:48:09;;;;;;;7.60;1.20;;;;;;;22.86;14.58;99890.02;104540;1283;70296;-72
2022/04/26 11:50:58;;;;;;;6.60;1.30;;;;;;;22.33;15.07;99892.91;104392;1282;59718;-68
2022/04/26 11:53:48;;;;;;;5.30;1.00;;;;;;;21.91;15.84;99894.44;104359;1282;59625;-69
2022/04/26 11:56:43;;;;;;;8.90;1.40;;;;;;;21.19;16.67;99896.10;104215;1281;73039;-69
2022/04/26 11:59:34;;;;;;;5.80;1.50;;;;;;;20.61;17.71;99894.43;104350;1281;69085;-68
2022/04/26 12:02:23;;;;;;;4.80;1.20;;;;;;;19.98;18.98;99901.30;104531;1281;71417;-68
2022/04/26 12:05:12;;;;;;;5.00;1.30;;;;;;;19.51;18.29;99903.47;104804;1281;59588;-69
2022/04/26 12:08:00;;;;;;;5.30;1.20;;;;;;;19.04;18.84;99903.79;104548;1280;60893;-71
2022/04/26 12:10:50;;;;;;;5.40;1.40;;;;;;;18.70;19.79;99904.92;104216;1281;74586;-70
2022/04/26 12:13:38;;;;;;;8.10;1.20;;;;;;;18.34;19.27;99903.77;104090;1281;68386;-70
2022/04/26 12:16:28;;;;;;;5.70;1.10;;;;;;;18.05;20.39;99908.05;104216;1281;74387;-69
2022/04/26 12:19:17;;;;;;;7.00;1.40;;;;;;;17.84;20.57;99909.17;104765;1281;59895;-68
2022/04/26 12:22:06;;;;;;;7.40;1.40;;;;;;;17.56;19.99;99912.39;104331;1281;59589;-69
2022/04/26 12:24:54;;;;;;;4.90;1.30;;;;;;;17.20;20.01;99918.90;104579;1273;72691;-68
2022/04/26 12:27:42;;;;;;;5.50;1.20;;;;;;;17.03;20.63;99918.13;104934;1273;68016;-66
2022/04/26 12:30:31;;;;;;;7.90;1.50;;;;;;;16.87;20.73;99919.92;104809;1274;72208;-68
2022/04/26 12:33:30;;;;;;;7.10;1.70;;;;;;;16.79;21.70;99923.87;104839;1273;59752;-66
2022/04/26 12:36:19;;;;;;;6.00;1.70;;;;;;;16.67;21.22;99924.17;104934;1274;59654;-69
2022/04/26 12:39:07;;;;;;;5.90;1.70;;;;;;;16.53;21.82;99926.94;104806;1275;70989;-69
2022/04/26 12:41:59;;;;;;;5.40;1.50;;;;;;;16.45;21.92;99926.54;105018;1274;68044;-69
2022/04/26 12:44:54;;;;;;;5.10;1.20;;;;;;;16.40;22.27;99927.04;105124;1273;71660;-71
2022/04/26 12:50:48;;;;;;;5.70;1.50;;;;;;;15.91;23.07;99934.25;105218;1273;62216;-69
2022/04/26 12:53:36;;;;;;;8.00;1.90;;;;;;;15.85;23.06;99934.49;105319;1273;72996;-68
2022/04/26 12:56:25;;;;;;;6.60;1.70;;;;;;;15.71;23.45;99934.91;104949;1273;66557;-71
2022/04/26 12:59:18;;;;;;;6.40;1.60;;;;;;;15.64;23.81;99934.69;105354;1275;72178;-72
2022/04/26 13:02:06;;;;;;;5.80;1.60;;;;;;;15.56;23.83;99935.94;104972;1276;59654;-72
2022/04/26 13:04:55;;;;;;;8.80;1.80;;;;;;;15.50;24.36;99935.58;104696;1274;60447;-72
2022/04/26 13:07:47;;;;;;;5.50;1.60;;;;;;;15.42;24.40;99938.56;104686;1274;73117;-69
2022/04/26 13:10:35;;;;;;;5.00;1.50;;;;;;;15.31;24.61;99939.44;104926;1275;66113;-75
2022/04/26 13:13:27;;;;;;;8.20;2.10;;;;;;;15.18;25.31;99942.69;104727;1274;74332;-69
2022/04/26 13:16:16;;;;;;;7.10;2.10;;;;;;;15.22;26.19;99945.67;104677;1273;59669;-71
2022/04/26 13:19:04;;;;;;;7.90;1.80;;;;;;;15.35;25.83;99943.31;104708;1273;60487;-71
2022/04/26 13:21:52;;;;;;;6.10;1.90;;;;;;;15.48;26.02;99941.39;104923;1273;73737;-69
2022/04/26 13:24:40;;;;;;;5.50;1.70;;;;;;;15.54;26.25;99943.48;104788;1273;69307;-72
2022/04/26 13:27:28;;;;;;;5.60;2.00;;;;;;;15.55;26.41;99941.59;105006;1273;73312;-70
2022/04/26 13:30:17;;;;;;;6.80;2.10;;;;;;;15.67;26.79;99946.30;104724;1273;61084;-71
2022/04/26 13:33:06;;;;;;;5.90;2.00;;;;;;;15.76;26.15;99940.32;104859;1274;59534;-71
2022/04/26 13:35:56;;;;;;;8.40;2.80;;;;;;;15.75;26.21;99945.30;104806;1274;73617;-73
2022/04/26 13:38:45;;;;;;;8.40;2.60;;;;;;;15.80;26.21;99942.28;104963;1274;68850;-72
2022/04/26 13:41:33;;;;;;;7.00;2.30;;;;;;;15.87;26.14;99935.30;104760;1273;73186;-75
2022/04/26 13:44:21;;;;;;;6.50;1.90;;;;;;;15.91;26.25;99936.23;104969;1273;59703;-70
2022/04/26 13:47:09;;;;;;;5.50;1.70;;;;;;;15.89;25.43;99933.15;104930;1273;59758;-73
2022/04/26 13:49:59;;;;;;;5.50;1.60;;;;;;;15.73;25.37;99940.27;105292;1273;71989;-74
2022/04/26 13:52:47;;;;;;;6.30;1.70;;;;;;;15.54;25.62;99942.23;104810;1273;67412;-72
2022/04/26 13:55:35;;;;;;;6.90;1.60;;;;;;;15.33;25.79;99947.35;104737;1273;72073;-73
2022/04/26 13:58:24;;;;;;;6.00;1.50;;;;;;;15.24;26.63;99949.11;104826;1274;59593;-72
2022/04/26 14:01:12;;;;;;;5.40;1.70;;;;;;;15.28;26.68;99953.88;104645;1273;60497;-72
2022/04/26 14:04:00;;;;;;;6.70;1.90;;;;;;;15.30;26.88;99950.98;104761;1273;73740;-73
2022/04/26 14:06:49;;;;;;;5.90;1.60;;;;;;;15.39;27.13;99942.82;104914;1273;66986;-74
2022/04/26 14:09:36;;;;;;;6.30;1.60;;;;;;;15.53;26.83;99941.73;104738;1273;73940;-71
2022/04/26 14:12:25;;;;;;;6.00;2.00;;;;;;;15.70;26.72;99944.89;104666;1276;59861;-70
2022/04/26 14:24:32;;;;;;;6.00;2.10;;;;;;;16.05;27.02;99953.87;104884;1273;72409;-71
2022/04/26 14:27:20;;;;;;;7.20;2.10;;;;;;;16.04;26.75;99957.19;104763;1273;59763;-72
2022/04/26 14:30:11;;;;;;;7.20;2.10;;;;;;;16.07;27.12;99959.22;104849;1273;61378;-71
2022/04/26 14:33:20;;;;;;;5.90;2.00;;;;;;;16.09;27.50;99960.80;104651;1273;72319;-71
2022/04/26 14:36:08;;;;;;;8.60;2.40;;;;;;;16.08;28.48;99962.52;104795;1273;68757;-72
2022/04/26 14:38:56;;;;;;;7.40;2.50;;;;;;;16.12;28.46;99958.92;104630;1273;72199;-72
2022/04/26 14:41:46;;;;;;;8.50;2.50;;;;;;;15.97;29.55;99962.54;104705;1273;59689;-72
2022/04/26 14:44:37;;;;;;;7.80;2.50;;;;;;;15.87;29.36;99963.25;104700;1273;61645;-71
2022/04/26 14:47:28;;;;;;;7.40;2.30;;;;;;;15.79;29.48;99967.80;104709;1274;74712;-69
2022/04/26 14:50:18;;;;;;;6.50;2.00;;;;;;;15.72;29.62;99965.73;104649;1274;67541;-72
2022/04/26 14:53:06;;;;;;;9.50;3.50;;;;;;;15.62;29.87;99967.30;104625;1274;73376;-72
2022/04/26 14:56:14;;;;;;;9.80;4.10;;;;;;;15.53;30.97;99966.30;104825;1274;59718;-72
2022/04/26 14:59:22;;;;;;;12.20;4.90;;;;;;;15.49;32.21;99968.45;104580;1273;60255;-72
2022/04/26 15:02:10;;;;;;;11.00;3.70;;;;;;;15.50;32.41;99968.86;104851;1274;72930;-70
2022/04/26 15:04:58;;;;;;;7.60;2.80;;;;;;;15.48;32.49;99973.91;104801;1274;68269;-72
2022/04/26 15:10:55;;;;;;;8.50;2.30;;;;;;;15.35;32.16;99975.00;106057;1273;59681;-71
2022/04/26 15:17:09;;;;;;;10.90;3.80;;;;;;;15.06;33.17;99977.87;106552;1273;73888;-72
2022/04/26 15:19:57;;;;;;;7.00;2.30;;;;;;;14.87;33.31;99979.17;106900;1274;68427;-70
2022/04/26 15:22:46;;;;;;;6.70;2.20;;;;;;;14.80;33.85;99984.30;105763;1274;71923;-70
2022/04/26 15:25:36;;;;;;;8.70;2.50;;;;;;;14.81;34.11;99979.91;105059;1274;59689;-72
2022/04/26 15:28:24;;;;;;;6.80;2.50;;;;;;;14.85;34.15;99981.85;104917;1274;60735;-71
2022/04/26 15:31:16;;;;;;;7.90;2.90;;;;;;;14.93;34.85;99984.11;104871;1274;72952;-71
2022/04/26 15:34:07;;;;;;;11.90;3.20;;;;;;;15.01;34.75;99980.63;105007;1274;66979;-74
2022/04/26 15:36:56;;;;;;;9.70;3.00;;;;;;;15.02;34.96;99980.34;104938;1274;74461;-72
2022/04/26 15:39:47;;;;;;;11.20;3.30;;;;;;;14.99;35.35;99988.58;104919;1274;59688;-72
2022/04/26 15:42:35;;;;;;;17.20;4.40;;;;;;;14.94;35.52;99984.31;105106;1274;60918;-72
2022/04/26 15:45:23;;;;;;;11.50;3.20;;;;;;;14.80;35.81;99989.69;104845;1274;73845;-72
2022/04/26 15:48:12;;;;;;;10.10;2.60;;;;;;;14.63;35.58;99992.48;104938;1274;67650;-70
2022/04/26 15:51:00;;;;;;;8.30;2.50;;;;;;;14.45;35.83;99993.46;104879;1274;74276;-72
2022/04/26 15:53:48;;;;;;;7.30;2.60;;;;;;;14.26;36.47;100001.67;104923;1274;60287;-73
2022/04/26 15:56:36;;;;;;;7.50;3.00;;;;;;;14.12;36.95;100000.38;104858;1274;60879;-70
2022/04/26 15:59:24;;;;;;;7.10;2.70;;;;;;;13.94;37.37;100003.05;104801;1274;73711;-71
2022/04/26 16:02:13;;;;;;;8.40;3.00;;;;;;;13.79;37.90;100003.04;104901;1274;70012;-70
2022/04/26 16:05:02;;;;;;;12.20;3.80;;;;;;;13.67;38.34;100007.20;105077;1274;71324;-72
2022/04/26 16:07:54;;;;;;;16.70;6.80;;;;;;;13.51;39.04;100012.31;105057;1274;59761;-68
2022/04/26 16:23:10;;;;;;;10.00;3.60;;;;;;;12.98;40.75;100025.60;105031;1274;59683;-67
2022/04/26 16:26:06;;;;;;;8.10;3.10;;;;;;;12.95;40.83;100024.25;105194;1274;59614;-74
2022/04/26 16:28:54;;;;;;;7.80;3.10;;;;;;;12.91;41.00;100023.33;104783;1274;74845;-73
2022/04/26 16:31:42;;;;;;;7.80;2.50;;;;;;;12.83;41.16;100026.33;104965;1274;68379;-73
2022/04/26 16:34:30;;;;;;;7.40;2.70;;;;;;;12.69;40.97;100026.89;104823;1274;73234;-73
2022/04/26 16:37:19;;;;;;;6.90;2.40;;;;;;;12.57;41.37;100026.14;104965;1274;59659;-72
2022/04/26 16:40:09;;;;;;;9.90;2.70;;;;;;;12.45;41.65;100032.48;104822;1273;60360;-72
2022/04/26 16:42:57;;;;;;;6.80;2.70;;;;;;;12.32;42.41;100033.45;105116;1274;71659;-74
2022/04/26 16:45:48;;;;;;;8.10;2.90;;;;;;;12.17;42.84;100029.37;105015;1274;68214;-72
2022/04/26 16:48:43;;;;;;;10.50;3.20;;;;;;;12.02;43.36;100032.36;104925;1275;72604;-72
2022/04/26 16:51:33;;;;;;;8.80;3.40;;;;;;;11.90;43.86;100037.06;104699;1277;59764;-75
2022/04/26 16:54:21;;;;;;;8.10;3.00;;;;;;;11.79;44.53;100041.57;105172;1274;59597;-73
2022/04/26 16:57:10;;;;;;;7.40;3.00;;;;;;;11.69;45.11;100041.85;105056;1274;73882;-73
2022/04/26 16:59:58;;;;;;;7.00;2.60;;;;;;;11.57;45.35;100046.89;104955;1274;68577;-72
2022/04/26 17:02:46;;;;;;;6.80;2.70;;;;;;;11.43;45.74;100049.87;104929;1274;72639;-74
2022/04/26 17:05:44;;;;;;;9.90;2.60;;;;;;;11.27;45.82;100046.52;104934;1274;59651;-73
2022/04/26 17:08:32;;;;;;;7.20;2.50;;;;;;;11.14;46.24;100050.05;105026;1274;61473;-73
2022/04/26 17:14:34;;;;;;;7.80;2.70;;;;;;;10.88;47.40;100051.52;105078;1274;69579;-72
2022/04/26 17:17:25;;;;;;;26.70;14.70;;;;;;;10.78;47.89;100054.67;105004;1274;73927;-71
2022/04/26 17:20:14;;;;;;;14.70;5.00;;;;;;;10.67;48.01;100066.16;104903;1274;59737;-71
2022/04/26 17:23:04;;;;;;;9.30;3.50;;;;;;;10.52;48.73;100063.27;105192;1274;60385;-77
2022/04/26 17:25:54;;;;;;;7.80;3.20;;;;;;;10.45;49.22;100069.81;105696;1274;72725;-76
2022/04/26 17:28:44;;;;;;;8.30;3.00;;;;;;;10.35;49.32;100073.39;105401;1274;66943;-72
2022/04/26 17:31:33;;;;;;;8.20;3.10;;;;;;;10.24;50.14;100074.57;105642;1273;74380;-76
2022/04/26 17:34:23;;;;;;;8.40;3.30;;;;;;;10.14;50.63;100077.66;107381;1274;59551;-74
2022/04/26 17:37:12;;;;;;;9.40;3.00;;;;;;;10.03;51.21;100084.66;105516;1274;60430;-74
2022/04/26 17:40:00;;;;;;;7.60;3.10;;;;;;;9.93;51.32;100085.42;105301;1274;72583;-73
2022/04/26 17:42:48;;;;;;;9.20;3.00;;;;;;;9.83;51.83;100093.38;105756;1274;66564;-72
2022/04/26 17:45:38;;;;;;;9.10;3.00;;;;;;;9.74;52.34;100095.84;105519;1274;72470;-72